createdAt,value
2019-04-05T00:01:27.464Z,47.97
2019-04-05T00:06:33.623Z,48.90
2019-04-05T00:11:39.723Z,54.63
2019-04-05T00:16:45.839Z,57.80
2019-04-05T00:21:52.000Z,56.33
2019-04-05T00:26:58.271Z,59.30
2019-04-05T00:32:04.403Z,59.83
2019-04-05T00:37:11.616Z,58.27
2019-04-05T00:42:17.703Z,58.93
2019-04-05T00:47:23.789Z,56.53
2019-04-05T00:52:29.835Z,58.70
2019-04-05T00:57:36.121Z,58.93
2019-04-05T01:02:42.199Z,57.40
2019-04-05T01:07:48.405Z,57.17
2019-04-05T01:12:54.463Z,58.40
2019-04-05T01:18:01.805Z,55.73
2019-04-05T01:23:08.334Z,57.40
2019-04-05T01:28:15.948Z,56.60
2019-04-05T01:33:22.024Z,57.83
2019-04-05T01:38:28.174Z,57.33
2019-04-05T01:43:34.346Z,55.23
2019-04-05T01:48:41.590Z,55.40
2019-04-05T01:53:47.634Z,53.67
2019-04-05T01:58:53.731Z,54.80
2019-04-05T02:04:00.826Z,55.13
2019-04-05T02:09:11.023Z,54.23
2019-04-05T02:14:17.288Z,53.53
2019-04-05T02:19:23.587Z,54.57
2019-04-05T02:24:29.845Z,54.20
2019-04-05T02:29:36.068Z,56.17
2019-04-05T02:34:42.227Z,53.93
2019-04-05T02:39:48.289Z,52.47
2019-04-05T02:44:55.374Z,52.90
2019-04-05T02:50:01.555Z,52.40
2019-04-05T02:55:07.998Z,53.70
2019-04-05T03:00:14.587Z,52.30
2019-04-05T03:05:22.616Z,51.37
2019-04-05T03:10:57.210Z,54.37
2019-04-05T03:16:06.682Z,49.73
2019-04-05T03:21:14.925Z,50.70
2019-04-05T03:26:23.771Z,54.47
2019-04-05T03:31:30.887Z,54.77
2019-04-05T03:36:37.237Z,55.77
2019-04-05T03:41:43.519Z,53.63
2019-04-05T03:46:56.761Z,51.77
2019-04-05T03:51:57.419Z,54.70
2019-04-05T03:57:04.081Z,51.83
2019-04-05T04:02:10.271Z,52.13
2019-04-05T04:07:16.387Z,51.83
2019-04-05T04:12:23.584Z,52.70
2019-04-05T04:17:29.933Z,51.73
2019-04-05T04:22:36.226Z,52.73
2019-04-05T04:27:42.498Z,50.57
2019-04-05T04:32:48.601Z,51.97
2019-04-05T04:37:55.988Z,50.33
2019-04-05T04:43:02.611Z,50.20
2019-04-05T04:48:09.293Z,51.10
2019-04-05T04:53:15.940Z,50.87
2019-04-05T04:58:22.081Z,51.67
2019-04-05T05:03:28.873Z,52.00
2019-04-05T05:08:35.162Z,52.50
2019-04-05T05:13:41.779Z,53.30
2019-04-05T05:18:48.045Z,53.73
2019-04-05T05:23:54.217Z,55.70
2019-04-05T05:29:00.527Z,56.33
2019-04-05T05:34:06.950Z,53.73
2019-04-05T05:39:13.121Z,53.73
2019-04-05T05:44:19.288Z,55.53
2019-04-05T05:49:25.449Z,53.17
2019-04-05T05:54:31.638Z,54.10
2019-04-05T05:59:37.811Z,54.93
2019-04-05T06:04:43.881Z,54.13
2019-04-05T06:09:50.003Z,53.30
2019-04-05T06:14:56.098Z,53.03
2019-04-05T06:20:02.498Z,51.93
2019-04-05T06:25:08.686Z,51.57
2019-04-05T06:30:14.951Z,51.60
2019-04-05T06:35:21.138Z,52.97
2019-04-05T06:40:39.697Z,50.80
2019-04-05T06:45:34.914Z,49.83
2019-04-05T06:50:41.089Z,50.70
2019-04-05T06:55:47.282Z,51.13
2019-04-05T07:00:57.186Z,51.37
2019-04-05T07:06:01.093Z,50.83
2019-04-05T07:11:07.257Z,51.33
2019-04-05T07:16:13.384Z,49.90
2019-04-05T07:21:19.434Z,49.57
2019-04-05T07:26:25.506Z,50.70
2019-04-05T07:31:31.753Z,49.93
2019-04-05T07:36:37.938Z,49.63
2019-04-05T07:41:44.030Z,50.17
2019-04-05T07:46:50.135Z,50.33
2019-04-05T07:51:56.194Z,51.63
2019-04-05T07:57:02.273Z,50.70
2019-04-05T08:02:08.326Z,48.77
2019-04-05T08:07:15.006Z,51.07
2019-04-05T08:12:22.112Z,53.23
2019-04-05T08:17:28.350Z,54.60
2019-04-05T08:22:34.557Z,51.67
2019-04-05T08:27:40.627Z,53.73
2019-04-05T08:32:46.701Z,52.97
2019-04-05T08:37:52.881Z,53.23
2019-04-05T08:42:59.342Z,50.43
2019-04-05T08:48:05.447Z,50.47
2019-04-05T08:53:11.610Z,49.17
2019-04-05T08:58:17.804Z,50.20
2019-04-05T09:03:23.879Z,48.77
2019-04-05T09:08:29.954Z,49.07
2019-04-05T09:13:36.153Z,46.23
2019-04-05T09:18:42.263Z,47.07
2019-04-05T09:23:48.412Z,45.73
2019-04-05T09:28:55.622Z,45.60
2019-04-05T09:34:01.713Z,43.70
2019-04-05T09:39:15.294Z,43.50
2019-04-05T09:44:19.035Z,42.60
2019-04-05T09:49:36.143Z,44.42
2019-04-05T09:54:33.081Z,45.65
2019-04-05T09:59:39.262Z,43.40
2019-04-05T10:04:45.385Z,41.05
2019-04-05T10:09:51.457Z,39.55
2019-04-05T10:14:57.537Z,38.83
2019-04-05T10:20:03.693Z,40.55
2019-04-05T10:25:11.043Z,41.65
2019-04-05T10:30:17.427Z,38.67
2019-04-05T10:35:23.510Z,40.78
2019-04-05T10:40:29.602Z,40.45
2019-04-05T10:45:35.795Z,39.70
2019-04-05T10:50:42.005Z,37.03
2019-04-05T10:55:48.114Z,36.77
2019-04-05T11:00:54.277Z,37.23
2019-04-05T11:06:00.390Z,35.00
2019-04-05T11:11:07.627Z,34.95
2019-04-05T11:16:13.782Z,29.52
2019-04-05T11:21:20.002Z,29.87
2019-04-05T11:26:26.195Z,27.17
2019-04-05T11:31:32.270Z,26.12
2019-04-05T11:36:38.514Z,27.62
2019-04-05T11:41:44.901Z,29.98
2019-04-05T11:46:51.178Z,31.37
2019-04-05T11:51:57.349Z,29.15
2019-04-05T11:57:03.546Z,34.00
2019-04-05T12:02:46.959Z,38.53
2019-04-05T12:07:53.002Z,38.63
2019-04-05T12:12:59.253Z,40.28
2019-04-05T12:18:05.385Z,39.90
2019-04-05T12:23:11.533Z,40.70
2019-04-05T12:28:17.613Z,40.00
2019-04-05T12:33:23.872Z,39.27
2019-04-05T12:38:32.462Z,42.33
2019-04-05T12:43:39.310Z,42.17
2019-04-05T12:48:46.387Z,43.30
2019-04-05T12:53:54.439Z,41.63
2019-04-05T12:59:00.251Z,41.53
2019-04-05T13:04:06.449Z,41.23
2019-04-05T13:09:14.206Z,40.75
2019-04-05T13:14:20.371Z,43.02
2019-04-05T13:19:26.460Z,40.77
2019-04-05T13:24:32.537Z,41.73
2019-04-05T13:29:38.888Z,40.07
2019-04-05T13:34:45.133Z,41.75
2019-04-05T13:39:52.281Z,42.78
2019-04-05T13:44:58.537Z,42.45
2019-04-05T13:50:06.121Z,44.37
2019-04-05T13:55:12.440Z,42.87
2019-04-05T14:00:19.328Z,42.33
2019-04-05T14:05:25.444Z,42.73
2019-04-05T14:10:31.524Z,42.08
2019-04-05T14:15:37.678Z,43.25
2019-04-05T14:20:43.819Z,43.57
2019-04-05T14:25:50.015Z,41.53
2019-04-05T14:30:57.207Z,42.03
2019-04-05T14:36:03.301Z,41.20
2019-04-05T14:41:09.392Z,42.00
2019-04-05T14:46:15.544Z,42.85
2019-04-05T14:51:21.697Z,41.60
2019-04-05T14:56:29.187Z,39.30
2019-04-05T15:01:35.686Z,38.70
2019-04-05T15:06:41.778Z,37.30
2019-04-05T15:11:47.930Z,34.87
2019-04-05T15:16:54.119Z,36.97
2019-04-05T15:22:05.578Z,37.13
2019-04-05T15:27:07.906Z,33.37
2019-04-05T15:32:14.097Z,33.43
2019-04-05T15:37:20.157Z,35.30
2019-04-05T15:42:26.417Z,34.63
2019-04-05T15:47:32.608Z,33.43
2019-04-05T15:52:38.727Z,33.37
2019-04-05T15:57:44.830Z,33.00
2019-04-05T16:02:50.878Z,32.77
2019-04-05T16:07:57.150Z,32.67
2019-04-05T16:13:03.341Z,31.93
2019-04-05T16:18:09.426Z,68.00
2019-04-05T16:23:15.445Z,32.77
2019-04-05T16:28:21.717Z,31.53
2019-04-05T16:33:27.901Z,33.53
2019-04-05T16:38:33.956Z,32.13
2019-04-05T16:43:39.959Z,36.93
2019-04-05T16:48:46.065Z,34.87
2019-04-05T16:54:02.094Z,35.90
2019-04-05T16:59:08.253Z,35.40
2019-04-05T17:04:15.756Z,35.70
2019-04-05T17:09:22.005Z,35.07
2019-04-05T17:14:28.286Z,35.50
2019-04-05T17:19:34.362Z,36.90
2019-04-05T17:24:40.557Z,37.17
2019-04-05T17:29:46.671Z,36.53
2019-04-05T17:34:52.894Z,34.43
2019-04-05T17:39:59.058Z,36.57
2019-04-05T17:45:06.102Z,35.80
2019-04-05T17:50:12.732Z,36.10
2019-04-05T17:55:18.997Z,36.10
2019-04-05T18:00:25.456Z,36.53
2019-04-05T18:05:31.556Z,35.20
2019-04-05T18:10:37.602Z,37.37
2019-04-05T18:15:52.256Z,45.20
2019-04-05T18:20:51.937Z,40.17
2019-04-05T18:25:58.081Z,38.03
2019-04-05T18:31:04.589Z,40.90
2019-04-05T18:36:11.410Z,36.13
2019-04-05T18:41:17.647Z,37.00
2019-04-05T18:46:23.894Z,36.67
2019-04-05T18:51:30.554Z,36.73
2019-04-05T18:56:36.822Z,36.03
2019-04-05T19:01:43.191Z,35.87
2019-04-05T19:06:50.367Z,35.50
2019-04-05T19:11:56.602Z,38.13
2019-04-05T19:17:03.051Z,37.77
2019-04-05T19:22:09.274Z,37.57
2019-04-05T19:27:15.396Z,35.23
2019-04-05T19:52:53.692Z,37.60
2019-04-05T19:57:59.814Z,38.47
2019-04-05T20:03:06.229Z,35.67
2019-04-05T20:08:12.205Z,34.63
2019-04-05T20:13:18.398Z,34.73
2019-04-05T20:18:24.590Z,33.97
2019-04-05T20:23:30.898Z,34.73
2019-04-05T20:28:36.949Z,33.53
2019-04-05T20:33:43.235Z,34.97
2019-04-05T20:38:50.437Z,34.60
2019-04-05T20:43:56.619Z,35.87
2019-04-05T20:49:02.669Z,34.60
2019-04-05T20:54:08.669Z,34.53
2019-04-05T20:59:14.811Z,32.87
2019-04-05T21:04:21.021Z,33.63
2019-04-05T21:09:27.102Z,33.40
2019-04-05T21:14:33.198Z,34.17
2019-04-05T21:19:39.349Z,33.43
2019-04-05T21:24:45.466Z,33.70
2019-04-05T21:29:51.818Z,32.93
2019-04-05T21:34:58.021Z,33.63
2019-04-05T21:40:04.184Z,34.03
2019-04-05T21:45:10.278Z,35.13
2019-04-05T21:50:16.571Z,35.07
2019-04-05T21:55:22.634Z,35.60
2019-04-05T22:00:33.840Z,34.47
2019-04-05T22:05:41.326Z,34.90
2019-04-05T22:10:47.499Z,33.40
2019-04-05T22:15:53.567Z,35.30
2019-04-05T22:21:00.166Z,32.83
2019-04-05T22:26:06.214Z,34.37
2019-04-05T22:31:12.405Z,32.93
2019-04-05T22:36:18.476Z,32.17
2019-04-05T22:41:24.613Z,32.17
2019-04-05T22:46:30.761Z,32.27
2019-04-05T22:51:36.959Z,31.17
2019-04-05T22:56:43.217Z,32.70
2019-04-05T23:01:50.221Z,30.43
2019-04-05T23:06:56.495Z,30.33
2019-04-05T23:12:02.683Z,29.63
2019-04-05T23:17:08.745Z,29.80
2019-04-05T23:22:14.859Z,30.73
2019-04-05T23:27:20.906Z,30.57
2019-04-05T23:32:27.017Z,29.30
2019-04-05T23:37:33.313Z,28.53
2019-04-05T23:42:39.534Z,30.70
2019-04-05T23:47:45.717Z,30.30
2019-04-05T23:52:51.910Z,29.07
2019-04-05T23:57:59.656Z,28.37
